Milford on Sea, United Kingdom
Current Conditions -  °F | °C
As of 10:20 AM on Monday 26 Jan 2015 (Local Time) from EGHH Reporting Station
Scattered Clouds Scattered Clouds  
Wind Chill: 11°   Ceiling: Unl
Heat Index: 11°   Visibility: 6mi
Dew Point:   Wind: 12mph
Humidity: 82%   Direction: 300°WNW
Pressure: 30.21"   Gusts: NA
Location:  50.73°N, 1.59°W
Report Text: EGHH 261020Z 30010KT 9999 SCT010 11/08 Q1023
Loading
Personal Weather Stations






























Interactive Weather Map New forecast layout! Learn more

10-Day Weather Forecast

Advertisements
Track Severe Weather on mobile